createdAt,value
2023-01-21T00:00:40.841Z,22.95
2023-01-21T00:03:08.165Z,22.92
2023-01-21T00:05:35.185Z,21.10
2023-01-21T00:08:02.857Z,24.17
2023-01-21T00:10:29.709Z,24.45
2023-01-21T00:12:56.402Z,24.98
2023-01-21T00:15:23.050Z,23.48
2023-01-21T00:17:52.935Z,20.60
2023-01-21T00:20:19.895Z,22.23
2023-01-21T00:22:46.605Z,24.48
2023-01-21T00:25:13.306Z,23.85
2023-01-21T00:27:40.379Z,23.17
2023-01-21T00:30:10.817Z,25.20
2023-01-21T00:32:37.734Z,22.42
2023-01-21T00:35:06.146Z,27.95
2023-01-21T00:37:33.304Z,28.10
2023-01-21T00:40:00.105Z,24.02
2023-01-21T00:42:28.013Z,26.88
2023-01-21T00:44:57.478Z,23.92
2023-01-21T00:47:24.828Z,23.63
2023-01-21T00:49:51.522Z,21.98
2023-01-21T00:52:18.203Z,26.75
2023-01-21T00:54:44.892Z,21.95
2023-01-21T00:57:12.582Z,26.02
2023-01-21T00:59:39.529Z,22.77
2023-01-21T01:02:06.309Z,26.38
2023-01-21T01:04:32.998Z,23.00
2023-01-21T01:06:59.796Z,25.25
2023-01-21T01:09:26.621Z,25.13
2023-01-21T01:11:53.267Z,24.73
2023-01-21T01:14:20.102Z,22.48
2023-01-21T01:16:46.746Z,25.77
2023-01-21T01:19:13.492Z,24.60
2023-01-21T01:21:40.230Z,23.80
2023-01-21T01:24:07.720Z,26.08
2023-01-21T01:26:37.171Z,27.23
2023-01-21T01:29:05.303Z,24.17
2023-01-21T01:31:32.104Z,24.23
2023-01-21T01:33:59.294Z,23.98
2023-01-21T01:36:26.211Z,27.33
2023-01-21T01:38:54.084Z,23.75
2023-01-21T01:41:30.106Z,24.60
2023-01-21T01:43:58.906Z,23.17
2023-01-21T01:46:31.127Z,23.23
2023-01-21T01:49:24.416Z,28.00
2023-01-21T01:51:56.188Z,25.83
2023-01-21T01:54:32.402Z,23.67
2023-01-21T01:57:05.522Z,22.63
2023-01-21T01:59:33.149Z,23.50
2023-01-21T02:02:05.548Z,23.23
2023-01-21T02:04:38.624Z,24.52
2023-01-21T02:07:05.374Z,23.10
2023-01-21T02:09:32.032Z,18.40
2023-01-21T02:12:01.474Z,23.60
2023-01-21T02:14:30.529Z,25.92
2023-01-21T02:17:00.162Z,23.27
2023-01-21T02:19:50.743Z,21.60
2023-01-21T02:22:41.406Z,21.40
2023-01-21T02:25:28.842Z,23.42
2023-01-21T02:28:20.470Z,21.60
2023-01-21T02:31:05.854Z,19.55
2023-01-21T02:33:54.545Z,25.15
2023-01-21T02:36:43.493Z,18.17
2023-01-21T02:39:21.670Z,23.25
2023-01-21T02:42:03.911Z,19.73
2023-01-21T02:44:48.915Z,19.25
2023-01-21T02:47:34.372Z,21.90
2023-01-21T02:50:19.102Z,21.48
2023-01-21T02:52:45.833Z,19.33
2023-01-21T02:55:16.501Z,20.30
2023-01-21T02:57:48.932Z,20.88
2023-01-21T03:00:25.443Z,22.52
2023-01-21T03:03:29.217Z,24.20
2023-01-21T03:06:30.144Z,22.67
2023-01-21T03:09:00.465Z,22.37
2023-01-21T03:11:27.923Z,20.08
2023-01-21T03:14:35.229Z,22.08
2023-01-21T03:17:11.173Z,24.33
2023-01-21T03:20:09.341Z,21.10
2023-01-21T03:22:37.326Z,22.58
2023-01-21T03:25:07.481Z,24.75
2023-01-21T03:27:36.766Z,16.83
2023-01-21T03:30:13.541Z,21.83
2023-01-21T03:32:43.025Z,23.52
2023-01-21T03:35:14.286Z,19.77
2023-01-21T03:37:52.997Z,19.10
2023-01-21T03:40:28.447Z,19.27
2023-01-21T03:42:56.548Z,17.88
2023-01-21T03:45:36.582Z,20.67
2023-01-21T03:48:18.627Z,22.05
2023-01-21T03:50:56.727Z,18.08
2023-01-21T03:53:23.558Z,22.60
2023-01-21T03:55:51.414Z,20.00
2023-01-21T03:58:18.068Z,22.80
2023-01-21T04:00:46.781Z,19.92
2023-01-21T04:03:13.554Z,24.83
2023-01-21T04:05:40.266Z,24.08
2023-01-21T04:08:06.936Z,25.08
2023-01-21T04:10:33.612Z,19.60
2023-01-21T04:13:00.279Z,22.00
2023-01-21T04:15:27.006Z,19.23
2023-01-21T04:17:53.752Z,19.77
2023-01-21T04:20:20.522Z,24.20
2023-01-21T04:22:47.201Z,21.90
2023-01-21T04:25:13.916Z,19.38
2023-01-21T04:27:40.614Z,21.73
2023-01-21T04:30:08.073Z,20.70
2023-01-21T04:32:34.865Z,24.02
2023-01-21T04:35:01.537Z,18.90
2023-01-21T04:37:28.652Z,20.15
2023-01-21T04:39:55.356Z,20.45
2023-01-21T04:42:22.065Z,24.30
2023-01-21T04:44:48.708Z,20.00
2023-01-21T04:47:15.408Z,21.80
2023-01-21T04:49:42.065Z,25.80
2023-01-21T04:52:09.322Z,23.33
2023-01-21T04:54:35.970Z,21.17
2023-01-21T04:57:02.689Z,19.92
2023-01-21T04:59:29.371Z,22.83
2023-01-21T05:01:56.264Z,21.48
2023-01-21T05:04:22.952Z,21.20
2023-01-21T05:06:49.646Z,19.70
2023-01-21T05:09:16.403Z,20.58
2023-01-21T05:11:43.080Z,23.50
2023-01-21T05:14:09.757Z,23.25
2023-01-21T05:16:36.504Z,24.13
2023-01-21T05:19:03.376Z,25.25
2023-01-21T05:21:30.032Z,27.45
2023-01-21T05:23:57.846Z,23.52
2023-01-21T05:26:24.609Z,26.70
2023-01-21T05:28:51.289Z,32.60
2023-01-21T05:31:18.091Z,30.45
2023-01-21T05:33:47.239Z,30.08
2023-01-21T05:36:14.152Z,21.85
2023-01-21T05:38:40.877Z,23.17
2023-01-21T05:41:07.710Z,22.52
2023-01-21T05:43:34.437Z,21.88
2023-01-21T05:46:01.393Z,22.67
2023-01-21T05:48:29.603Z,22.15
2023-01-21T05:50:58.191Z,25.33
2023-01-21T05:53:25.928Z,24.40
2023-01-21T05:55:56.735Z,24.95
2023-01-21T05:58:25.521Z,22.48
2023-01-21T06:00:52.294Z,19.98
2023-01-21T06:03:19.299Z,24.55
2023-01-21T06:05:47.001Z,18.90
2023-01-21T06:08:13.717Z,20.27
2023-01-21T06:10:40.596Z,21.27
2023-01-21T06:13:07.458Z,22.10
2023-01-21T06:15:34.135Z,24.65
2023-01-21T06:18:01.290Z,20.63
2023-01-21T06:20:31.616Z,23.60
2023-01-21T06:22:58.983Z,24.15
2023-01-21T06:25:26.274Z,21.73
2023-01-21T06:27:56.289Z,23.80
2023-01-21T06:30:24.421Z,26.40
2023-01-21T06:32:51.542Z,23.45
2023-01-21T06:35:18.358Z,20.42
2023-01-21T06:37:46.181Z,22.98
2023-01-21T06:40:13.718Z,21.25
2023-01-21T06:42:40.747Z,25.73
2023-01-21T06:45:07.834Z,24.83
2023-01-21T06:47:34.585Z,25.52
2023-01-21T06:50:03.934Z,22.30
2023-01-21T06:52:30.568Z,22.40
2023-01-21T06:54:57.296Z,22.42
2023-01-21T06:57:24.932Z,23.50
2023-01-21T06:59:51.622Z,23.13
2023-01-21T07:02:18.343Z,22.92
2023-01-21T07:04:45.438Z,22.67
2023-01-21T07:07:12.160Z,26.55
2023-01-21T07:09:38.899Z,22.75
2023-01-21T07:12:05.703Z,26.70
2023-01-21T07:14:32.358Z,24.67
2023-01-21T07:16:59.033Z,25.95
2023-01-21T07:19:25.728Z,27.65
2023-01-21T07:21:53.834Z,21.75
2023-01-21T07:24:20.595Z,21.55
2023-01-21T07:26:48.314Z,21.30
2023-01-21T07:29:15.030Z,23.25
2023-01-21T07:31:41.916Z,27.27
2023-01-21T07:34:08.682Z,22.17
2023-01-21T07:36:35.617Z,20.75
2023-01-21T07:39:02.287Z,20.15
2023-01-21T07:41:28.952Z,19.70
2023-01-21T07:43:55.884Z,24.80
2023-01-21T07:46:23.253Z,20.42
2023-01-21T07:48:53.344Z,19.65
2023-01-21T07:51:20.829Z,17.23
2023-01-21T07:53:47.826Z,25.30
2023-01-21T07:56:15.079Z,17.83
2023-01-21T07:58:41.963Z,18.17
2023-01-21T08:01:10.181Z,15.90
2023-01-21T08:03:37.569Z,14.23
2023-01-21T08:06:07.289Z,17.65
2023-01-21T08:08:34.647Z,13.18
2023-01-21T08:11:02.388Z,16.95
2023-01-21T08:13:29.264Z,14.43
2023-01-21T08:15:56.887Z,11.73
2023-01-21T08:18:24.062Z,17.13
2023-01-21T08:20:58.292Z,13.65
2023-01-21T08:23:26.413Z,15.80
2023-01-21T08:25:53.734Z,13.43
2023-01-21T08:28:21.356Z,16.20
2023-01-21T08:30:48.101Z,12.57
2023-01-21T08:33:15.841Z,15.50
2023-01-21T08:35:42.578Z,14.13
2023-01-21T08:38:09.326Z,14.07
2023-01-21T08:40:36.005Z,12.80
2023-01-21T08:43:04.726Z,12.65
2023-01-21T08:45:31.664Z,11.07
2023-01-21T08:47:58.368Z,12.85
2023-01-21T08:50:25.239Z,11.32
2023-01-21T08:52:54.099Z,14.90
2023-01-21T08:55:21.491Z,14.02
2023-01-21T08:57:52.106Z,14.68
2023-01-21T09:00:19.863Z,13.88
2023-01-21T09:02:46.661Z,12.60
2023-01-21T09:05:13.344Z,14.73
2023-01-21T09:07:40.013Z,10.90
2023-01-21T09:10:07.605Z,13.60
2023-01-21T09:12:34.630Z,14.32
2023-01-21T09:15:01.343Z,17.17
2023-01-21T09:17:28.043Z,16.00
2023-01-21T09:19:55.585Z,17.27
2023-01-21T09:22:22.344Z,15.88
2023-01-21T09:24:49.065Z,13.88
2023-01-21T09:27:15.766Z,13.52
2023-01-21T09:29:42.470Z,13.05
2023-01-21T09:32:09.909Z,14.13
2023-01-21T09:34:36.650Z,14.32
2023-01-21T09:37:05.124Z,13.93
2023-01-21T09:39:31.902Z,14.63
2023-01-21T09:41:58.773Z,17.65
2023-01-21T09:44:25.995Z,13.88
2023-01-21T09:46:52.628Z,15.93
2023-01-21T09:49:42.259Z,14.23
2023-01-21T09:52:08.865Z,14.52
2023-01-21T09:54:39.022Z,12.68
2023-01-21T09:57:24.446Z,11.55
2023-01-21T10:00:05.513Z,11.27
2023-01-21T10:02:58.973Z,11.95
2023-01-21T10:05:51.165Z,13.02
2023-01-21T10:08:23.917Z,10.95
2023-01-21T10:11:20.409Z,11.95
2023-01-21T10:14:08.235Z,11.27
2023-01-21T10:16:57.842Z,11.82
2023-01-21T10:19:33.361Z,13.65
2023-01-21T10:22:09.889Z,8.40
2023-01-21T10:24:40.928Z,9.88
2023-01-21T10:27:14.649Z,11.15
2023-01-21T10:29:42.928Z,10.98
2023-01-21T10:32:15.931Z,9.32
2023-01-21T10:34:54.265Z,8.50
2023-01-21T10:37:51.271Z,8.90
2023-01-21T10:40:42.851Z,8.98
2023-01-21T10:45:57.609Z,10.25
2023-01-21T10:49:08.074Z,9.38
2023-01-21T10:51:52.462Z,10.63
2023-01-21T10:54:58.825Z,7.80
2023-01-21T10:58:04.956Z,7.18
2023-01-21T11:00:39.961Z,7.38
2023-01-21T11:03:31.202Z,8.07
2023-01-21T11:06:00.198Z,8.30
2023-01-21T11:08:28.297Z,7.82
2023-01-21T11:10:55.882Z,7.25
2023-01-21T11:13:23.538Z,9.68
2023-01-21T11:15:56.564Z,7.25
2023-01-21T11:18:53.964Z,7.72
2023-01-21T11:21:23.503Z,7.32
2023-01-21T11:24:01.563Z,7.25
2023-01-21T11:26:32.460Z,7.55
2023-01-21T11:29:20.018Z,8.63
2023-01-21T11:32:16.632Z,9.13
2023-01-21T11:34:48.895Z,8.13
2023-01-21T11:37:30.070Z,6.82
2023-01-21T11:39:58.292Z,5.22
2023-01-21T11:42:25.715Z,7.22
2023-01-21T11:44:55.097Z,5.50
2023-01-21T11:47:51.540Z,6.75
2023-01-21T11:50:19.550Z,6.28
2023-01-21T11:52:46.455Z,7.53
2023-01-21T11:55:22.021Z,5.50
2023-01-21T11:57:52.928Z,6.47
2023-01-21T12:00:22.637Z,6.78
2023-01-21T12:02:53.164Z,6.10
2023-01-21T12:05:26.169Z,8.03
2023-01-21T12:07:53.357Z,7.53
2023-01-21T12:10:44.190Z,6.55
2023-01-21T12:13:22.656Z,5.90
2023-01-21T12:16:21.910Z,5.72
2023-01-21T12:19:03.073Z,7.40
2023-01-21T12:21:41.259Z,7.13
2023-01-21T12:24:29.596Z,6.95
2023-01-21T12:27:18.898Z,8.77
2023-01-21T12:30:21.000Z,6.32
2023-01-21T12:32:56.863Z,7.63
2023-01-21T12:35:41.238Z,5.72
2023-01-21T12:38:18.160Z,5.53
2023-01-21T12:41:22.688Z,5.60
2023-01-21T12:43:56.751Z,6.43
2023-01-21T12:46:27.768Z,5.95
2023-01-21T12:49:15.494Z,6.63
2023-01-21T12:51:46.551Z,6.93
2023-01-21T12:54:23.544Z,6.63
2023-01-21T12:57:01.243Z,6.13
2023-01-21T12:59:46.476Z,6.63
2023-01-21T13:02:39.748Z,7.28
2023-01-21T13:05:23.669Z,8.07
2023-01-21T13:08:13.355Z,6.55
2023-01-21T13:10:50.130Z,6.18
2023-01-21T13:13:23.685Z,7.47
2023-01-21T13:15:56.355Z,6.55
2023-01-21T13:18:34.700Z,7.60
2023-01-21T13:21:33.077Z,7.30
2023-01-21T13:24:16.053Z,8.75
2023-01-21T13:26:53.022Z,10.05
2023-01-21T13:29:37.390Z,8.77
2023-01-21T13:32:45.306Z,9.50
2023-01-21T13:35:12.519Z,8.27
2023-01-21T13:37:46.838Z,7.88
2023-01-21T13:40:22.611Z,10.00
2023-01-21T13:43:24.536Z,7.28
2023-01-21T13:46:13.259Z,8.15
2023-01-21T13:48:39.892Z,8.18
2023-01-21T13:51:18.706Z,7.45
2023-01-21T13:54:11.619Z,8.65
2023-01-21T13:57:03.183Z,9.00
2023-01-21T13:59:46.102Z,9.82
2023-01-21T14:02:21.366Z,7.20
2023-01-21T14:04:57.930Z,7.97
2023-01-21T14:07:28.351Z,7.03
2023-01-21T14:10:04.318Z,8.53
2023-01-21T14:12:54.161Z,8.25
2023-01-21T14:15:36.309Z,7.63
2023-01-21T14:18:11.963Z,6.30
2023-01-21T14:21:05.800Z,7.78
2023-01-21T14:23:54.270Z,7.97
2023-01-21T14:26:46.948Z,8.80
2023-01-21T14:29:31.130Z,8.15
2023-01-21T14:32:09.263Z,8.10
2023-01-21T14:35:01.931Z,7.32
2023-01-21T14:37:34.835Z,7.53
2023-01-21T14:40:23.598Z,7.40
2023-01-21T14:42:51.980Z,7.30
2023-01-21T14:45:22.515Z,7.15
2023-01-21T14:47:52.083Z,8.60
2023-01-21T14:50:51.299Z,6.38
2023-01-21T14:53:26.956Z,6.15
2023-01-21T14:56:09.449Z,6.07
2023-01-21T14:58:36.964Z,6.32
2023-01-21T15:01:07.173Z,8.65
2023-01-21T15:03:43.620Z,6.88
2023-01-21T15:06:10.394Z,6.85
2023-01-21T15:08:46.140Z,6.68
2023-01-21T15:11:32.170Z,6.85
2023-01-21T15:14:11.289Z,8.20
2023-01-21T15:16:42.881Z,9.43
2023-01-21T15:19:19.007Z,8.05
2023-01-21T15:22:03.650Z,7.97
2023-01-21T15:24:35.985Z,7.40
2023-01-21T15:27:25.863Z,7.07
2023-01-21T15:29:55.283Z,7.15
2023-01-21T15:32:29.461Z,7.90
2023-01-21T15:35:00.624Z,8.40
2023-01-21T15:37:30.306Z,7.88
2023-01-21T15:40:00.674Z,10.00
2023-01-21T15:42:44.223Z,9.50
2023-01-21T15:45:29.577Z,8.15
2023-01-21T15:48:11.375Z,6.85
2023-01-21T15:50:53.706Z,6.32
2023-01-21T15:53:28.685Z,8.25
2023-01-21T15:56:25.905Z,8.70
2023-01-21T15:59:04.348Z,8.57
2023-01-21T16:01:41.216Z,8.20
2023-01-21T16:04:36.876Z,8.68
2023-01-21T16:07:21.055Z,8.73
2023-01-21T16:10:26.280Z,7.75
2023-01-21T16:13:07.722Z,8.40
2023-01-21T16:15:53.073Z,8.77
2023-01-21T16:18:37.908Z,9.70
2023-01-21T16:21:04.851Z,11.13
2023-01-21T16:23:36.314Z,10.85
2023-01-21T16:26:03.642Z,8.60
2023-01-21T16:28:59.996Z,11.52
2023-01-21T16:31:51.176Z,8.65
2023-01-21T16:34:39.009Z,7.47
2023-01-21T16:37:06.625Z,9.50
2023-01-21T16:39:33.465Z,9.10
2023-01-21T16:42:03.286Z,8.80
2023-01-21T16:44:32.462Z,7.85
2023-01-21T16:46:59.218Z,8.48
2023-01-21T16:49:26.287Z,6.70
2023-01-21T16:51:56.797Z,8.13
2023-01-21T16:54:25.403Z,10.93
2023-01-21T16:56:52.040Z,11.32
2023-01-21T16:59:20.291Z,8.68
2023-01-21T17:01:48.294Z,9.68
2023-01-21T17:04:15.086Z,11.07
2023-01-21T17:06:44.409Z,13.20
2023-01-21T17:09:25.109Z,11.98
2023-01-21T17:11:52.005Z,16.20
2023-01-21T17:14:24.973Z,15.75
2023-01-21T17:16:52.169Z,19.63
2023-01-21T17:19:25.329Z,16.65
2023-01-21T17:21:57.078Z,14.73
2023-01-21T17:24:31.628Z,14.85
2023-01-21T17:27:09.387Z,14.70
2023-01-21T17:29:36.233Z,12.73
2023-01-21T17:32:23.483Z,12.57
2023-01-21T17:35:13.667Z,12.95
2023-01-21T17:37:45.055Z,12.23
2023-01-21T17:43:22.677Z,13.63
2023-01-21T17:45:51.684Z,12.77
2023-01-21T17:48:26.851Z,14.55
2023-01-21T17:50:54.337Z,13.93
2023-01-21T17:53:28.439Z,14.40
2023-01-21T17:55:58.494Z,15.98
2023-01-21T17:58:43.185Z,20.90
2023-01-21T18:01:10.532Z,16.70
2023-01-21T18:03:37.306Z,18.40
2023-01-21T18:06:06.079Z,19.85
2023-01-21T18:08:32.782Z,20.77
2023-01-21T18:10:59.489Z,17.55
2023-01-21T18:13:26.163Z,16.98
2023-01-21T18:15:54.223Z,17.92
2023-01-21T18:18:22.576Z,17.95
2023-01-21T18:20:49.292Z,14.68
2023-01-21T18:23:18.093Z,18.00
2023-01-21T18:25:52.512Z,31.60
2023-01-21T18:28:21.877Z,32.45
2023-01-21T18:30:50.176Z,54.15
2023-01-21T18:33:18.029Z,40.97
2023-01-21T18:35:46.912Z,22.17
2023-01-21T18:38:21.739Z,18.50
2023-01-21T18:40:48.602Z,25.98
2023-01-21T18:43:15.294Z,16.33
2023-01-21T18:45:41.971Z,15.75
2023-01-21T18:48:15.270Z,15.50
2023-01-21T18:50:41.982Z,18.67
2023-01-21T18:53:09.255Z,16.38
2023-01-21T18:55:35.950Z,15.20
2023-01-21T18:58:04.585Z,13.93
2023-01-21T19:00:33.968Z,16.38
2023-01-21T19:03:02.320Z,15.27
2023-01-21T19:05:40.604Z,17.60
2023-01-21T19:08:17.613Z,17.65
2023-01-21T19:10:44.947Z,16.25
2023-01-21T19:13:14.338Z,14.77
2023-01-21T19:15:41.925Z,16.60
2023-01-21T19:18:12.748Z,16.55
2023-01-21T19:20:42.564Z,17.75
2023-01-21T19:23:16.983Z,16.02
2023-01-21T19:25:56.054Z,20.73
2023-01-21T19:28:24.867Z,20.23
2023-01-21T19:30:55.504Z,20.70
2023-01-21T19:33:23.346Z,18.83
2023-01-21T19:35:56.505Z,22.90
2023-01-21T19:38:23.771Z,16.67
2023-01-21T19:40:50.894Z,16.85
2023-01-21T19:43:21.440Z,13.15
2023-01-21T19:45:49.522Z,19.20
2023-01-21T19:48:18.696Z,17.73
2023-01-21T19:50:45.545Z,20.63
2023-01-21T19:53:17.562Z,22.30
2023-01-21T19:55:46.421Z,19.65
2023-01-21T19:58:19.896Z,20.48
2023-01-21T20:00:52.754Z,20.40
2023-01-21T20:03:21.765Z,19.52
2023-01-21T20:05:51.263Z,19.67
2023-01-21T20:08:23.705Z,16.65
2023-01-21T20:10:50.863Z,17.60
2023-01-21T20:13:18.020Z,18.10
2023-01-21T20:15:46.197Z,16.15
2023-01-21T20:18:19.013Z,15.88
2023-01-21T20:20:46.077Z,15.93
2023-01-21T20:23:14.864Z,14.10
2023-01-21T20:25:43.655Z,15.45
2023-01-21T20:28:20.977Z,41.47
2023-01-21T20:30:48.875Z,43.42
2023-01-21T20:33:20.969Z,43.92
2023-01-21T20:35:50.226Z,104.05
2023-01-21T20:38:23.093Z,144.93
2023-01-21T20:40:49.777Z,141.07
2023-01-21T20:43:18.939Z,324.60
2023-01-21T20:45:48.940Z,110.45
2023-01-21T20:48:19.057Z,82.40
2023-01-21T20:50:46.226Z,33.58
2023-01-21T20:53:13.102Z,25.02
2023-01-21T20:55:40.238Z,21.45
2023-01-21T20:58:07.111Z,19.13
2023-01-21T21:00:35.890Z,16.83
2023-01-21T21:03:02.727Z,16.20
2023-01-21T21:05:29.418Z,14.23
2023-01-21T21:07:56.290Z,14.73
2023-01-21T21:10:25.934Z,12.73
2023-01-21T21:12:52.992Z,14.88
2023-01-21T21:15:20.598Z,13.52
2023-01-21T21:17:47.900Z,13.77
2023-01-21T21:20:19.630Z,16.38
2023-01-21T21:22:46.877Z,14.65
2023-01-21T21:25:16.383Z,13.40
2023-01-21T21:27:43.422Z,13.10
2023-01-21T21:30:27.079Z,11.65
2023-01-21T21:32:56.070Z,11.57
2023-01-21T21:35:29.688Z,13.95
2023-01-21T21:38:09.987Z,12.88
2023-01-21T21:40:36.983Z,11.80
2023-01-21T21:43:22.416Z,13.95
2023-01-21T21:46:07.695Z,11.95
2023-01-21T21:48:41.948Z,10.98
2023-01-21T21:51:10.264Z,11.60
2023-01-21T21:53:37.684Z,13.80
2023-01-21T21:56:06.788Z,13.73
2023-01-21T21:58:33.745Z,16.80
2023-01-21T22:01:18.040Z,15.80
2023-01-21T22:03:45.139Z,17.90
2023-01-21T22:06:12.708Z,19.77
2023-01-21T22:08:41.235Z,22.25
2023-01-21T22:11:10.770Z,20.98
2023-01-21T22:13:40.289Z,31.58
2023-01-21T22:16:10.691Z,24.23
2023-01-21T22:18:37.879Z,20.52
2023-01-21T22:21:11.949Z,19.17
2023-01-21T22:23:38.862Z,16.38
2023-01-21T22:26:09.511Z,14.40
2023-01-21T22:28:36.503Z,15.80
2023-01-21T22:31:08.230Z,17.38
2023-01-21T22:33:35.967Z,16.80
2023-01-21T22:36:06.363Z,15.43
2023-01-21T22:38:34.495Z,18.25
2023-01-21T22:41:01.690Z,15.43
2023-01-21T22:43:29.432Z,13.30
2023-01-21T22:45:57.312Z,12.10
2023-01-21T22:48:24.438Z,11.35
2023-01-21T22:50:53.204Z,10.55
2023-01-21T22:53:20.064Z,11.00
2023-01-21T22:55:57.659Z,9.50
2023-01-21T22:58:25.626Z,12.15
2023-01-21T23:00:53.537Z,9.15
2023-01-21T23:03:21.336Z,12.15
2023-01-21T23:05:48.862Z,11.35
2023-01-21T23:08:16.699Z,11.15
2023-01-21T23:10:44.142Z,12.57
2023-01-21T23:13:11.826Z,11.68
2023-01-21T23:15:46.122Z,11.10
2023-01-21T23:18:14.484Z,10.38
2023-01-21T23:20:43.298Z,12.50
2023-01-21T23:23:11.998Z,9.50
2023-01-21T23:25:43.196Z,10.65
2023-01-21T23:28:10.818Z,11.77
2023-01-21T23:30:37.526Z,10.60
2023-01-21T23:33:04.247Z,10.68
2023-01-21T23:35:31.959Z,10.30
2023-01-21T23:38:00.311Z,9.02
2023-01-21T23:40:26.993Z,10.35
2023-01-21T23:42:53.815Z,9.38
2023-01-21T23:45:20.451Z,8.77
2023-01-21T23:47:47.722Z,9.48
2023-01-21T23:50:14.536Z,8.43
2023-01-21T23:52:41.530Z,9.45
2023-01-21T23:55:09.827Z,10.35
2023-01-21T23:57:37.177Z,8.60
